首页
METAR-TAF:

METAR-TAF

机场 :

法戈, 北达科他州, 美国

纬度: 46-55-31N, 经度: 096-48-40W, 海拔: 274米

当前天气观测

该预报发布于44分钟前的20:53 UTC
风速3节,风向多变
温度 29°C
湿度 29%
气压 1015 hPa
能見度: 16.1公里
天空无云

METAR: KFAR 142053Z VRB03KT 10SM CLR 29/09 A2998 RMK AO2 SLP148 T02940089 58020

时间: 16:37 (21:37 UTC)

预报

该预报发布于3小时和56分钟前的17:41 UTC
预报有效从14日的 18点(UTC)到 15日的 18点(UTC)
风速5节,风向西转西南
能見度: 10公里
少量云层高于6000英尺
散云层高于22000英尺
从 15日的 0500点(UTC)
风速9节,风向东转东南
能見度: 10公里
多云层高于15000英尺
从 15日的 1200点(UTC)
风速13节,风向南转南东,有时为22节阵风
能見度: 10公里
多云层高于8000英尺
从 15日的 1600点(UTC)
风速18节,风向,有时为28节阵风
能見度: 10公里
多云层高于3000英尺

TAF: KFAR 141741Z 1418/1518 25005KT P6SM FEW060 SCT220 FM150500 11009KT P6SM BKN150 FM151200 16013G22KT P6SM BKN080 FM151600 17018G28KT P6SM BKN030

超过4000个机场的气象观测和天气预报(METAR&TAF报告)。

可查询的气象台以黄色和红色小点在地图上表示。

将鼠标移到小点上方,可查看气象台名称。

然后点击查看天气观测和预报。

如需切换地图:点击带黑十字的绿色按钮放大地图;点击带横线的绿色按钮缩小地图;或者点击绿色箭头查看邻近地区的地图。


METAR-TAF: